Aviation Digital Data Service (ADDS)

Output produced by METARs form (2237 UTC 30 March 2017)
found at http://www.aviationweather.gov/adds/metars/
 
TAF AMD KIAB 302025Z 3020/3124 33012G20KT 9999 BKN015 OVC030 510003 QNH2970INS 
     BECMG 3022/3023 35012KT 9999 BKN030 BKN250 QNH2971INS 
     BECMG 3103/3104 VRB06KT 9999 BKN030 BKN250 QNH2975INS 
     BECMG 3112/3113 08010G15KT 9999 FEW020 QNH2984INS TX09/3023Z TN03/3112Z
       
KIAD 302100Z 3021/3124 14009KT P6SM OVC045 
     FM310400 14008KT P6SM -SHRA SCT030 OVC060 
     FM311100 12009KT 2SM RA BKN008 OVC025 
     FM311700 14009KT 4SM SHRA BKN010 OVC020 
     FM312000 17009KT 5SM SHRA SCT020 OVC025 
     FM312200 21006KT 4SM SHRA SCT020 OVC030
       
KIAG 302102Z 3021/3118 09012KT P6SM BKN050 OVC060 
     FM310000 09012KT 6SM -RA OVC020 
     FM310400 09016KT 6SM -RA OVC007 
     FM310600 10016KT 6SM -RA OVC003
       
KIAH 302100Z 3021/3124 32006KT P6SM SKC 
     FM310100 20003KT P6SM SKC 
     FM311600 18009KT P6SM SKC
       
KICT 301851Z 3019/3118 33017G24KT 5SM -DZ OVC013 
     FM302100 32014G20KT P6SM BKN020 
     FM310500 01005KT P6SM SCT060 
     FM311100 04004KT 3SM BR BKN010 
     FM311400 05005KT 5SM BR SCT008 
     FM311700 07009KT P6SM SCT015
       
KIDA 301720Z 3018/3118 VRB05KT P6SM VCSH SCT008 OVC025 
     TEMPO 3018/3020 P6SM -SHRA BKN015 OVC025 
     FM302200 20010G20KT 6SM -SHRA BR BKN010 OVC020 
     FM310300 36020G30KT P6SM -SHRA SCT010 OVC035
       
KIFP 301729Z 3018/3118 20011KT P6SM SCT250 
     FM301900 20017G25KT P6SM SCT250 
     FM302100 24028G38KT P6SM SCT250 
     FM310200 33020G30KT P6SM FEW150 
     FM310900 34012G20KT P6SM FEW150
       
KILG 301728Z 3018/3118 14006KT P6SM OVC100 
     FM302300 12008KT P6SM BKN050 OVC090 
     FM310800 10008KT 5SM -RA BR BKN015 OVC025 
     FM311200 10011KT 4SM RA BR SCT003 OVC008 
     FM311500 10013KT 2SM RA BR OVC003
       
KILM 301736Z 3018/3118 10009G20KT P6SM FEW025 BKN090 
     PROB30 3107/3110 4SM TSRA BKN020CB 
     FM311000 16010KT P6SM SHRA VCTS SCT020CB OVC050 
     FM311700 21015G23KT 4SM SHRA VCTS BKN025CB OVC040
       
KILN 301750Z 3018/3118 17014G24KT P6SM SCT100 BKN200 
     FM302300 20011G16KT P6SM VCTS BKN050CB 
     FM310300 18009KT 3SM -SHRA BR VCTS OVC025CB 
     FM310600 19007KT 3SM -SHRA BR OVC025 
     FM311000 19007KT 3SM -SHRA BR OVC015 
     FM311200 21008KT P6SM OVC015 
     FM311600 24012KT P6SM OVC015
       
KIND 302020Z 3020/3124 19014G24KT P6SM -SHRA VCTS SCT050CB OVC090 
     TEMPO 3021/3101 2SM -TSRA BR OVC040CB 
     FM310100 19007KT P6SM VCSH OVC090 
     FM310600 20006KT P6SM BKN045 
     FM311200 23007KT P6SM OVC008
       
TAF AMD KINS 302101Z 3021/3121 26025G35KT 9000 -TSRA BKN100CB 530009 QNH2940INS 
     TEMPO 3022/3023 26040G50KT 
     BECMG 3022/3023 26025G35KT 9999 VCTS BKN100CB 530009 QNH2939INS 
     TEMPO 3023/3101 26040G50KT 
     BECMG 3100/3101 26030G35KT 9999 NSW OVC150 530009 QNH2945INS 
     BECMG 3111/3112 26015G25KT 9999 SCT140 OVC200 510009 QNH2984INS TX24/3022Z TN02/3112Z
       
KINT 301720Z 3018/3118 11008KT P6SM OVC025 
     FM302000 12008KT P6SM OVC035 
     FM302300 13008KT 5SM -SHRA BR OVC012 
     FM310300 15008KT P6SM VCSH OVC008 
     FM310600 17011G20KT 3SM SHRA BR BKN008 OVC060 
     TEMPO 3108/3111 2SM +TSRA BR SCT008 OVC025CB 
     FM311400 21012G23KT P6SM VCSH BKN030
       
KINW 301740Z 3018/3118 23016G25KT P6SM FEW150 
     FM302100 22030G44KT P6SM FEW150 
     FM310200 21020G35KT P6SM BKN080 
     FM310700 23017G23KT P6SM SCT080
       
KIPL 301734Z 3018/3118 23006KT P6SM FEW250 
     FM302100 25018G28KT P6SM SCT250 
     FM310000 26028G38KT 5SM BLDU SCT250 
     TEMPO 3100/3103 2SM BLDU 
     FM310700 30014G22KT P6SM SKC
       
KIPT 302131Z 3022/3118 10006KT P6SM -RA OVC050 
     FM302230 10008KT P6SM OVC040 
     FM310000 10008KT 5SM BR VCSH OVC025 WS020/17035KT 
     FM310400 12008G14KT 3SM -SHRA BR OVC010 WS020/18035KT 
     FM310900 12008G14KT 1SM -RA BR OVC007 WS020/20042KT 
     PROB30 3112/3118 08010KT 2SM -RA BR OVC004
       
KISM 301738Z 3018/3118 17010KT P6SM SCT060 SCT250 
     FM310000 13007KT P6SM BKN060 
     FM310300 17005KT P6SM SCT040 
     FM311500 19012G18KT P6SM FEW030
       
KISN 301734Z 3018/3118 10005KT P6SM OVC080 
     FM310600 VRB03KT P6SM VCSH OVC060 
     FM311200 08005KT P6SM OVC020 
     FM311300 08005KT 5SM BR OVC015 
     FM311500 07006KT 2SM -RA BR OVC010
       
KISO 301731Z 3018/3118 11010KT P6SM BKN060 
     FM310800 15010KT P6SM OVC050 
     FM311100 15010KT P6SM OVC020 
     FM311200 15010KT 5SM TSRA OVC010CB 
     FM311600 18010KT P6SM VCTS OVC020CB AMD LTD TO CLD VIS AND WIND
       
KISP 302110Z 3021/3118 19008KT P6SM FEW060 BKN150 
     FM310000 VRB04KT P6SM BKN100 
     FM310600 VRB04KT P6SM BKN030 
     FM311100 11008KT 5SM -RA OVC010 
     FM311600 11013G20KT 2SM -RA OVC004
       
KITH 301720Z 3018/3118 14005KT P6SM BKN080 
     FM310000 13007KT P6SM -RA OVC035 
     FM310300 14011KT 5SM -RA OVC020 
     FM310500 14012KT 3SM -RA OVC015 
     FM311100 14015G24KT 3SM -RA OVC008
       
KIWA 301734Z 3018/3118 14008KT P6SM SKC 
     FM302000 21010G18KT P6SM FEW250 
     FM302300 23014G24KT P6SM SCT250 
     TEMPO 3105/3108 27020G30KT 6SM BLDU 
     FM311100 25010KT P6SM FEW070
       
KIXD 301720Z 3018/3118 VRB05KT P6SM VCSH OVC008 
     FM310100 33010KT P6SM OVC008 
     FM311500 02006KT P6SM BKN015